Time;durP1;ratioP1;P1;durP2;ratioP2;P2;SDS_P1;SDS_P2;PMS_P1;PMS_P2;Temp;Humidity;BMP_temperature;BMP_pressure;BME280_temperature;BME280_humidity;BME280_pressure;Samples;Min_cycle;Max_cycle;Signal;HPM_P1;HPM_P2
2021/06/30 00:02:12;;;;;;;;;;;17.30;99.90;;;;;;5069563;28;19986;-55
2021/06/30 00:04:38;;;;;;;;;;;17.40;99.90;;;;;;5069069;28;19981;-55
2021/06/30 00:07:04;;;;;;;;;;;17.40;99.90;;;;;;5069388;28;19993;-55
2021/06/30 00:09:30;;;;;;;;;;;17.30;99.90;;;;;;5069938;28;20027;-54
2021/06/30 00:11:55;;;;;;;;;;;17.20;99.90;;;;;;5069003;28;19982;-55
2021/06/30 00:14:21;;;;;;;;;;;17.30;99.90;;;;;;5069260;28;20009;-54
2021/06/30 00:16:48;;;;;;;;;;;17.40;99.90;;;;;;5081653;28;19990;-54
2021/06/30 00:19:13;;;;;;;;;;;17.30;99.90;;;;;;5069126;28;20427;-55
2021/06/30 00:21:39;;;;;;;;;;;17.30;99.90;;;;;;5068924;28;19992;-55
2021/06/30 00:24:05;;;;;;;;;;;17.30;99.90;;;;;;5069207;28;20031;-54
2021/06/30 00:26:31;;;;;;;;;;;17.20;99.90;;;;;;5068876;28;20097;-54
2021/06/30 00:28:57;;;;;;;;;;;17.10;99.90;;;;;;5072641;28;19988;-55
2021/06/30 00:31:22;;;;;;;;;;;17.20;99.90;;;;;;5089423;28;20126;-55
2021/06/30 00:33:48;;;;;;;;;;;17.20;99.90;;;;;;5089066;28;20048;-55
2021/06/30 00:36:14;;;;;;;;;;;17.20;99.90;;;;;;5072235;28;19993;-55
2021/06/30 00:38:40;;;;;;;;;;;17.20;99.90;;;;;;5068427;28;19989;-55
2021/06/30 00:41:06;;;;;;;;;;;17.10;99.90;;;;;;5068733;28;19995;-55
2021/06/30 00:43:32;;;;;;;;;;;17.00;99.90;;;;;;5068629;28;19986;-54
2021/06/30 00:45:57;;;;;;;;;;;17.00;99.90;;;;;;5078196;28;19992;-54
2021/06/30 00:48:23;;;;;;;;;;;17.10;99.90;;;;;;5068755;28;19997;-54
2021/06/30 00:50:49;;;;;;;;;;;17.10;99.90;;;;;;5068358;28;19991;-54
2021/06/30 00:53:14;;;;;;;;;;;17.10;99.90;;;;;;5070133;28;20009;-54
2021/06/30 00:55:40;;;;;;;;;;;17.00;99.90;;;;;;5088729;28;19981;-55
2021/06/30 00:58:07;;;;;;;;;;;17.00;99.90;;;;;;5088787;28;19985;-55
2021/06/30 01:00:32;;;;;;;;;;;17.10;99.90;;;;;;5089284;28;19984;-55
2021/06/30 01:02:58;;;;;;;;;;;17.10;99.90;;;;;;5088507;28;20075;-55
2021/06/30 01:05:24;;;;;;;;;;;17.10;99.90;;;;;;5067715;28;19997;-55
2021/06/30 01:07:49;;;;;;;;;;;17.10;99.90;;;;;;5072638;28;20491;-55
2021/06/30 01:10:16;;;;;;;;;;;17.10;99.90;;;;;;5081590;28;19991;-55
2021/06/30 01:12:41;;;;;;;;;;;17.10;99.90;;;;;;5070995;28;20012;-54
2021/06/30 01:15:08;;;;;;;;;;;17.10;99.90;;;;;;5082057;28;19985;-54
2021/06/30 01:17:34;;;;;;;;;;;17.00;99.90;;;;;;5067970;28;20075;-53
2021/06/30 01:19:59;;;;;;;;;;;17.00;99.90;;;;;;5068119;28;20092;-54
2021/06/30 01:22:25;;;;;;;;;;;17.00;99.90;;;;;;5067778;28;19996;-54
2021/06/30 01:24:51;;;;;;;;;;;17.00;99.90;;;;;;5067215;28;20020;-54
2021/06/30 01:27:18;;;;;;;;;;;17.00;99.90;;;;;;5067028;28;20641;-54
2021/06/30 01:29:45;;;;;;;;;;;17.00;99.90;;;;;;5067759;28;20401;-55
2021/06/30 01:32:10;;;;;;;;;;;17.00;99.90;;;;;;5067168;28;20446;-55
2021/06/30 01:34:37;;;;;;;;;;;17.10;99.90;;;;;;5067287;28;20095;-55
2021/06/30 01:37:03;;;;;;;;;;;17.00;99.90;;;;;;5066870;28;20062;-55
2021/06/30 01:39:29;;;;;;;;;;;17.00;99.90;;;;;;5067217;28;20001;-55
2021/06/30 01:41:55;;;;;;;;;;;17.00;99.90;;;;;;5067725;28;19997;-55
2021/06/30 01:44:20;;;;;;;;;;;17.00;99.90;;;;;;5067549;28;20016;-54
2021/06/30 01:46:46;;;;;;;;;;;16.90;99.90;;;;;;5066264;28;19989;-54
2021/06/30 01:49:12;;;;;;;;;;;16.80;99.90;;;;;;5067027;28;20440;-54
2021/06/30 01:51:37;;;;;;;;;;;16.80;99.90;;;;;;5067075;28;19985;-53
2021/06/30 01:54:06;;;;;;;;;;;16.70;99.90;;;;;;5066400;28;20005;-54
2021/06/30 01:56:32;;;;;;;;;;;16.80;99.90;;;;;;5066695;28;19987;-54
2021/06/30 01:58:59;;;;;;;;;;;16.80;99.90;;;;;;5085439;28;19989;-54
2021/06/30 02:01:25;;;;;;;;;;;16.80;99.90;;;;;;5085126;28;20521;-54
2021/06/30 02:03:51;;;;;;;;;;;16.90;99.90;;;;;;5085663;28;20203;-54
2021/06/30 02:06:17;;;;;;;;;;;16.80;99.90;;;;;;5086106;28;20466;-54
2021/06/30 02:08:42;;;;;;;;;;;16.90;99.90;;;;;;5067823;28;19993;-54
2021/06/30 02:11:08;;;;;;;;;;;16.90;99.90;;;;;;5085592;28;19981;-54
2021/06/30 02:13:33;;;;;;;;;;;16.90;99.90;;;;;;5085640;28;20005;-54
2021/06/30 02:16:00;;;;;;;;;;;16.90;99.90;;;;;;5085408;28;19995;-53
2021/06/30 02:18:25;;;;;;;;;;;16.90;99.90;;;;;;5085993;28;19985;-54
2021/06/30 02:20:52;;;;;;;;;;;16.90;99.90;;;;;;5083801;28;20126;-54
2021/06/30 02:23:17;;;;;;;;;;;16.90;99.90;;;;;;5084967;28;19992;-54
2021/06/30 02:25:44;;;;;;;;;;;17.00;99.90;;;;;;5085645;28;20449;-53
2021/06/30 02:28:09;;;;;;;;;;;17.00;99.90;;;;;;5084575;28;19984;-54
2021/06/30 02:30:36;;;;;;;;;;;17.10;99.90;;;;;;5068923;28;19996;-55
2021/06/30 02:33:03;;;;;;;;;;;17.00;99.90;;;;;;5084487;28;20008;-55
2021/06/30 02:35:28;;;;;;;;;;;17.10;99.90;;;;;;5085277;28;19981;-54
2021/06/30 02:37:55;;;;;;;;;;;17.00;99.90;;;;;;5072870;28;19997;-55
2021/06/30 02:40:21;;;;;;;;;;;17.00;99.90;;;;;;5065094;28;20021;-54
2021/06/30 02:42:48;;;;;;;;;;;17.10;99.90;;;;;;5065259;28;20031;-54
2021/06/30 02:45:14;;;;;;;;;;;17.00;99.90;;;;;;5065143;28;20077;-54
2021/06/30 02:47:41;;;;;;;;;;;17.00;99.90;;;;;;5072181;28;20532;-53
2021/06/30 02:50:08;;;;;;;;;;;17.00;99.90;;;;;;5074079;28;19990;-53
2021/06/30 02:52:35;;;;;;;;;;;16.80;99.90;;;;;;5065793;28;20352;-55
2021/06/30 02:55:00;;;;;;;;;;;16.80;99.90;;;;;;5065860;28;19981;-54
2021/06/30 02:57:27;;;;;;;;;;;16.70;99.90;;;;;;5065859;28;19986;-53
2021/06/30 02:59:52;;;;;;;;;;;16.80;99.90;;;;;;5064569;28;20472;-54
2021/06/30 03:02:19;;;;;;;;;;;16.80;99.90;;;;;;5065289;28;19981;-54
2021/06/30 03:04:45;;;;;;;;;;;16.80;99.90;;;;;;5064647;28;19984;-54
2021/06/30 03:07:11;;;;;;;;;;;16.80;99.90;;;;;;5080447;28;19993;-55
2021/06/30 03:09:36;;;;;;;;;;;16.70;99.90;;;;;;5076730;28;20098;-55
2021/06/30 03:12:02;;;;;;;;;;;16.70;99.90;;;;;;5065308;28;19993;-54
2021/06/30 03:14:28;;;;;;;;;;;16.70;99.90;;;;;;5072267;28;20001;-54
2021/06/30 03:16:54;;;;;;;;;;;16.80;99.90;;;;;;5085639;28;19981;-53
2021/06/30 03:19:19;;;;;;;;;;;16.60;99.90;;;;;;5083767;28;19996;-53
2021/06/30 03:21:45;;;;;;;;;;;16.70;99.90;;;;;;5085174;28;19988;-54
2021/06/30 03:24:10;;;;;;;;;;;16.60;99.90;;;;;;5083383;28;19985;-54
2021/06/30 03:26:36;;;;;;;;;;;16.60;99.90;;;;;;5064224;28;19997;-54
2021/06/30 03:29:02;;;;;;;;;;;16.60;99.90;;;;;;5065494;28;19982;-55
2021/06/30 03:31:29;;;;;;;;;;;16.50;99.90;;;;;;5065081;28;19993;-54
2021/06/30 03:33:55;;;;;;;;;;;16.60;99.90;;;;;;5064722;28;20062;-54
2021/06/30 03:36:21;;;;;;;;;;;16.50;99.90;;;;;;5080618;28;19989;-54
2021/06/30 03:38:46;;;;;;;;;;;16.50;99.90;;;;;;5069902;28;19993;-54
2021/06/30 03:41:12;;;;;;;;;;;16.50;99.90;;;;;;5068555;28;20356;-54
2021/06/30 03:43:37;;;;;;;;;;;16.40;99.90;;;;;;5068220;28;20045;-54
2021/06/30 03:46:03;;;;;;;;;;;16.40;99.90;;;;;;5067153;28;20051;-54
2021/06/30 03:48:29;;;;;;;;;;;16.40;99.90;;;;;;5067970;28;20020;-54
2021/06/30 03:50:55;;;;;;;;;;;16.20;99.90;;;;;;5068420;28;20000;-53
2021/06/30 03:53:20;;;;;;;;;;;16.30;99.90;;;;;;5068310;28;20402;-53
2021/06/30 03:55:46;;;;;;;;;;;16.30;99.90;;;;;;5067470;28;19997;-53
2021/06/30 03:58:12;;;;;;;;;;;16.30;99.90;;;;;;5068082;28;19981;-53
2021/06/30 04:00:38;;;;;;;;;;;16.20;99.90;;;;;;5067978;28;20455;-55
2021/06/30 04:03:04;;;;;;;;;;;16.30;99.90;;;;;;5068444;28;20386;-53
2021/06/30 04:05:29;;;;;;;;;;;16.30;99.90;;;;;;5067665;28;19996;-54
2021/06/30 04:07:56;;;;;;;;;;;16.30;99.90;;;;;;5068451;28;19982;-54
2021/06/30 04:10:21;;;;;;;;;;;16.20;99.90;;;;;;5068493;28;19989;-54
2021/06/30 04:12:47;;;;;;;;;;;16.20;99.90;;;;;;5067227;28;20054;-54
2021/06/30 04:15:13;;;;;;;;;;;16.20;99.90;;;;;;5068096;28;19985;-54
2021/06/30 04:17:38;;;;;;;;;;;16.10;99.90;;;;;;5087071;28;19991;-54
2021/06/30 04:20:05;;;;;;;;;;;16.10;99.90;;;;;;5089001;28;20045;-54
2021/06/30 04:22:32;;;;;;;;;;;16.00;99.90;;;;;;5088214;28;19981;-53
2021/06/30 04:24:58;;;;;;;;;;;16.00;99.90;;;;;;5087395;28;20054;-53
2021/06/30 04:27:23;;;;;;;;;;;16.10;99.90;;;;;;5067430;28;19997;-55
2021/06/30 04:29:49;;;;;;;;;;;16.20;99.90;;;;;;5066700;28;19985;-54
2021/06/30 04:32:14;;;;;;;;;;;16.20;99.90;;;;;;5067223;28;19985;-54
2021/06/30 04:34:42;;;;;;;;;;;16.10;99.90;;;;;;5066876;28;20013;-53
2021/06/30 04:37:08;;;;;;;;;;;16.20;99.90;;;;;;5082557;28;20042;-55
2021/06/30 04:39:34;;;;;;;;;;;16.10;99.90;;;;;;5087972;28;19989;-54
2021/06/30 04:42:00;;;;;;;;;;;16.10;99.90;;;;;;5087660;28;20413;-54
2021/06/30 04:44:25;;;;;;;;;;;16.10;99.90;;;;;;5087835;28;20080;-54
2021/06/30 04:46:52;;;;;;;;;;;16.10;99.90;;;;;;5072308;28;20084;-53
2021/06/30 04:49:17;;;;;;;;;;;16.00;99.90;;;;;;5068849;28;19993;-53
2021/06/30 04:51:44;;;;;;;;;;;16.10;99.90;;;;;;5086334;28;19984;-52
2021/06/30 04:54:11;;;;;;;;;;;16.00;99.90;;;;;;5087288;28;20026;-53
2021/06/30 04:56:41;;;;;;;;;;;16.00;99.90;;;;;;5079593;28;19985;-54
2021/06/30 04:59:07;;;;;;;;;;;16.20;99.90;;;;;;5067624;28;20361;-55
2021/06/30 05:01:33;;;;;;;;;;;16.20;99.90;;;;;;5067213;28;19985;-54
2021/06/30 05:04:00;;;;;;;;;;;16.00;99.90;;;;;;5066904;28;20595;-54
2021/06/30 05:06:26;;;;;;;;;;;16.20;99.90;;;;;;5068932;28;19989;-54
2021/06/30 05:08:51;;;;;;;;;;;16.30;99.90;;;;;;5087351;28;20354;-53
2021/06/30 05:11:17;;;;;;;;;;;16.30;99.90;;;;;;5069095;28;19989;-53
2021/06/30 05:13:43;;;;;;;;;;;16.30;99.90;;;;;;5068489;28;20017;-53
2021/06/30 05:16:10;;;;;;;;;;;16.20;99.90;;;;;;5086639;28;20088;-53
2021/06/30 05:18:36;;;;;;;;;;;16.20;99.90;;;;;;5085692;28;20031;-54
2021/06/30 05:21:02;;;;;;;;;;;16.20;99.90;;;;;;5066963;28;20383;-54
2021/06/30 05:23:28;;;;;;;;;;;16.30;99.90;;;;;;5066617;28;19982;-54
2021/06/30 05:25:53;;;;;;;;;;;16.30;99.90;;;;;;5066574;28;19992;-54
2021/06/30 05:28:19;;;;;;;;;;;16.30;99.90;;;;;;5066418;28;19985;-54
2021/06/30 05:30:44;;;;;;;;;;;16.30;99.90;;;;;;5080308;28;19989;-55
2021/06/30 05:33:11;;;;;;;;;;;16.30;99.90;;;;;;5066247;28;20027;-54
2021/06/30 05:35:36;;;;;;;;;;;16.30;99.90;;;;;;5066082;28;20375;-55
2021/06/30 05:38:02;;;;;;;;;;;16.40;99.90;;;;;;5067014;28;19989;-55
2021/06/30 05:40:27;;;;;;;;;;;16.40;99.90;;;;;;5066548;28;20084;-55
2021/06/30 05:42:57;;;;;;;;;;;16.30;99.90;;;;;;5066098;28;19992;-55
2021/06/30 05:45:23;;;;;;;;;;;16.40;99.90;;;;;;5066079;28;19989;-55
2021/06/30 05:47:48;;;;;;;;;;;16.40;99.90;;;;;;5065696;28;20092;-55
2021/06/30 05:50:15;;;;;;;;;;;16.50;99.90;;;;;;5065886;28;20358;-55
2021/06/30 05:52:40;;;;;;;;;;;16.40;99.90;;;;;;5067417;28;20083;-54
2021/06/30 05:55:07;;;;;;;;;;;16.40;99.90;;;;;;5066906;28;20089;-55
2021/06/30 05:57:34;;;;;;;;;;;16.30;99.90;;;;;;5066642;28;20375;-55
2021/06/30 06:00:01;;;;;;;;;;;16.40;99.90;;;;;;5065799;28;19992;-55
2021/06/30 06:02:27;;;;;;;;;;;16.60;99.90;;;;;;5083912;28;19996;-55
2021/06/30 06:04:53;;;;;;;;;;;16.60;99.90;;;;;;5080067;28;20455;-55
2021/06/30 06:07:18;;;;;;;;;;;16.60;99.90;;;;;;5081310;28;20031;-55
2021/06/30 06:09:44;;;;;;;;;;;16.70;99.90;;;;;;5086004;28;19992;-55
2021/06/30 06:12:11;;;;;;;;;;;16.70;99.90;;;;;;5070399;28;19989;-57
2021/06/30 06:14:36;;;;;;;;;;;16.80;99.90;;;;;;5070989;28;20096;-57
2021/06/30 06:17:02;;;;;;;;;;;16.90;99.90;;;;;;5074802;28;20067;-57
2021/06/30 06:19:27;;;;;;;;;;;16.80;99.90;;;;;;5086638;28;19985;-56
2021/06/30 06:21:54;;;;;;;;;;;16.80;99.90;;;;;;5072178;28;19985;-57
2021/06/30 06:24:20;;;;;;;;;;;16.90;99.90;;;;;;5075097;28;20474;-57
2021/06/30 06:26:48;;;;;;;;;;;17.00;99.90;;;;;;5082391;28;20028;-57
2021/06/30 06:29:14;;;;;;;;;;;16.90;99.90;;;;;;5075787;28;19993;-57
2021/06/30 06:31:41;;;;;;;;;;;16.80;99.90;;;;;;5074301;28;20451;-56
2021/06/30 06:34:06;;;;;;;;;;;17.00;99.90;;;;;;5086858;28;20013;-57
2021/06/30 06:36:33;;;;;;;;;;;17.10;99.90;;;;;;5078084;28;20035;-57
2021/06/30 06:39:00;;;;;;;;;;;17.20;99.90;;;;;;5079169;28;19989;-57
2021/06/30 06:41:26;;;;;;;;;;;17.20;99.90;;;;;;5071730;28;20375;-58
2021/06/30 06:43:51;;;;;;;;;;;17.20;99.90;;;;;;5074518;28;19993;-57
2021/06/30 06:46:18;;;;;;;;;;;17.30;99.90;;;;;;5078134;28;20057;-57
2021/06/30 06:48:44;;;;;;;;;;;17.20;99.90;;;;;;5080009;28;20578;-58
2021/06/30 06:51:09;;;;;;;;;;;17.30;99.90;;;;;;5075793;28;20024;-57
2021/06/30 06:53:35;;;;;;;;;;;17.30;99.90;;;;;;5086556;28;20031;-57
2021/06/30 06:56:02;;;;;;;;;;;17.40;99.90;;;;;;5084590;28;21410;-56
2021/06/30 06:58:28;;;;;;;;;;;17.50;99.90;;;;;;5084794;28;19981;-58
2021/06/30 07:00:54;;;;;;;;;;;17.60;99.90;;;;;;5075340;28;20035;-58
2021/06/30 07:03:20;;;;;;;;;;;17.60;99.90;;;;;;5086798;28;19988;-58
2021/06/30 07:05:45;;;;;;;;;;;17.60;99.90;;;;;;5086022;28;20466;-58
2021/06/30 07:08:12;;;;;;;;;;;17.80;99.90;;;;;;5086414;28;19981;-58
2021/06/30 07:10:38;;;;;;;;;;;17.90;99.90;;;;;;5086265;28;19987;-57
2021/06/30 07:13:04;;;;;;;;;;;18.10;99.90;;;;;;5084868;28;20584;-58
2021/06/30 07:15:29;;;;;;;;;;;18.10;99.90;;;;;;5086879;28;20001;-58
2021/06/30 07:17:55;;;;;;;;;;;18.10;99.90;;;;;;5078083;28;19988;-58
2021/06/30 07:20:20;;;;;;;;;;;18.00;99.90;;;;;;5068452;28;19977;-58
2021/06/30 07:22:46;;;;;;;;;;;18.10;99.90;;;;;;5069547;28;20074;-58
2021/06/30 07:25:14;;;;;;;;;;;17.90;99.90;;;;;;5068338;28;20017;-58
2021/06/30 07:27:39;;;;;;;;;;;18.00;99.90;;;;;;5069059;28;20315;-58
2021/06/30 07:30:05;;;;;;;;;;;18.00;99.90;;;;;;5070353;28;20359;-58
2021/06/30 07:32:31;;;;;;;;;;;18.10;99.90;;;;;;5082621;28;20031;-59
2021/06/30 07:34:57;;;;;;;;;;;18.10;99.90;;;;;;5087827;28;20510;-58
2021/06/30 07:37:23;;;;;;;;;;;18.20;99.90;;;;;;5069587;28;19993;-57
2021/06/30 07:39:49;;;;;;;;;;;18.30;99.90;;;;;;5068387;28;20099;-58
2021/06/30 07:42:15;;;;;;;;;;;18.40;99.90;;;;;;5072198;28;19997;-57
2021/06/30 07:44:43;;;;;;;;;;;18.20;99.90;;;;;;5081037;28;20529;-58
2021/06/30 07:47:10;;;;;;;;;;;18.10;99.90;;;;;;5086724;28;20016;-59
2021/06/30 07:49:37;;;;;;;;;;;18.20;99.90;;;;;;5070811;28;19992;-59
2021/06/30 07:52:02;;;;;;;;;;;18.30;99.90;;;;;;5080895;28;19999;-59
2021/06/30 07:54:28;;;;;;;;;;;18.50;99.90;;;;;;5070806;28;20009;-59
2021/06/30 07:56:53;;;;;;;;;;;18.30;99.90;;;;;;5077229;28;20002;-60
2021/06/30 07:59:19;;;;;;;;;;;18.20;99.90;;;;;;5098093;28;20067;-59
2021/06/30 08:01:46;;;;;;;;;;;18.30;99.90;;;;;;5071296;28;19989;-59
2021/06/30 08:04:12;;;;;;;;;;;18.30;99.90;;;;;;5068023;28;19993;-60
2021/06/30 08:06:38;;;;;;;;;;;18.20;99.90;;;;;;5073508;28;20247;-59
2021/06/30 08:09:04;;;;;;;;;;;18.30;99.90;;;;;;5075353;28;19996;-60
2021/06/30 08:11:31;;;;;;;;;;;18.40;99.90;;;;;;5086033;28;19993;-60
2021/06/30 08:13:58;;;;;;;;;;;18.30;99.90;;;;;;5079911;28;20055;-61
2021/06/30 08:16:24;;;;;;;;;;;18.40;99.90;;;;;;5075510;28;20046;-60
2021/06/30 08:18:49;;;;;;;;;;;18.60;99.90;;;;;;5080647;28;19988;-61
2021/06/30 08:21:16;;;;;;;;;;;18.70;99.90;;;;;;5077734;28;19993;-62
2021/06/30 08:23:42;;;;;;;;;;;18.60;99.90;;;;;;5089716;28;19992;-61
2021/06/30 08:26:09;;;;;;;;;;;18.60;99.90;;;;;;5088666;28;19988;-61
2021/06/30 08:28:36;;;;;;;;;;;18.80;99.90;;;;;;5080458;28;20366;-60
2021/06/30 08:31:02;;;;;;;;;;;18.70;99.90;;;;;;5088518;28;20374;-61
2021/06/30 08:33:28;;;;;;;;;;;18.70;99.90;;;;;;5088350;28;20011;-61
2021/06/30 08:35:55;;;;;;;;;;;18.80;99.90;;;;;;5088478;28;20061;-60
2021/06/30 08:38:21;;;;;;;;;;;18.80;99.90;;;;;;5087697;28;20446;-61
2021/06/30 08:40:47;;;;;;;;;;;18.90;99.90;;;;;;5078730;28;20067;-61
2021/06/30 08:43:13;;;;;;;;;;;18.90;99.90;;;;;;5071765;28;20003;-61
2021/06/30 08:45:41;;;;;;;;;;;18.80;99.90;;;;;;5074364;28;20544;-61
2021/06/30 08:48:08;;;;;;;;;;;18.70;99.90;;;;;;5072724;28;20000;-61
2021/06/30 08:50:35;;;;;;;;;;;18.70;99.90;;;;;;5072239;28;20028;-62
2021/06/30 08:53:02;;;;;;;;;;;18.70;99.90;;;;;;5074269;28;20009;-60
2021/06/30 08:55:27;;;;;;;;;;;18.70;99.90;;;;;;5086320;28;20462;-59
2021/06/30 08:57:53;;;;;;;;;;;18.70;99.90;;;;;;5088132;28;19988;-60
2021/06/30 09:00:20;;;;;;;;;;;18.80;99.90;;;;;;5087239;28;19989;-61
2021/06/30 09:02:47;;;;;;;;;;;18.90;99.90;;;;;;5086030;28;19993;-62
2021/06/30 09:07:48;;;;;;;;;;;19.10;99.90;;;;;;5083326;28;20291;-61
2021/06/30 09:10:29;;;;;;;;;;;19.20;99.90;;;;;;5066977;28;20451;-62
2021/06/30 09:12:55;;;;;;;;;;;19.20;99.90;;;;;;5065513;28;19997;-61
2021/06/30 09:15:26;;;;;;;;;;;19.10;99.90;;;;;;5076693;28;20508;-61
2021/06/30 09:17:53;;;;;;;;;;;19.10;99.90;;;;;;5083607;28;19988;-61
2021/06/30 09:20:18;;;;;;;;;;;19.30;99.90;;;;;;5076896;28;20471;-61
2021/06/30 09:22:45;;;;;;;;;;;19.30;99.90;;;;;;5077716;28;20030;-60
2021/06/30 09:25:27;;;;;;;;;;;19.20;99.90;;;;;;5070352;28;19989;-60
2021/06/30 09:27:53;;;;;;;;;;;19.40;99.90;;;;;;5084299;28;20000;-60
2021/06/30 09:30:19;;;;;;;;;;;19.10;99.90;;;;;;5086620;28;19981;-60
2021/06/30 09:32:58;;;;;;;;;;;19.20;99.90;;;;;;5086534;28;19995;-60
2021/06/30 09:35:28;;;;;;;;;;;19.10;99.90;;;;;;5086773;28;20012;-60
2021/06/30 09:37:54;;;;;;;;;;;19.00;99.90;;;;;;5085725;28;20031;-60
2021/06/30 09:40:20;;;;;;;;;;;19.10;99.90;;;;;;5086822;28;19995;-60
2021/06/30 09:42:46;;;;;;;;;;;19.30;99.90;;;;;;5086214;28;20390;-60
2021/06/30 09:45:13;;;;;;;;;;;19.50;99.90;;;;;;5086169;28;20026;-61
2021/06/30 09:47:46;;;;;;;;;;;19.50;99.90;;;;;;5086151;28;19997;-61
2021/06/30 09:50:13;;;;;;;;;;;19.60;99.90;;;;;;5086369;28;19989;-60
2021/06/30 09:52:40;;;;;;;;;;;19.70;99.90;;;;;;5084415;28;20393;-60
2021/06/30 09:55:21;;;;;;;;;;;19.40;99.90;;;;;;5086935;28;20046;-61
2021/06/30 09:57:47;;;;;;;;;;;19.40;99.90;;;;;;5085928;28;19991;-61
2021/06/30 10:00:13;;;;;;;;;;;19.50;99.90;;;;;;5086112;28;19985;-60
2021/06/30 10:02:39;;;;;;;;;;;19.50;99.90;;;;;;5085948;28;19981;-61
2021/06/30 10:05:07;;;;;;;;;;;19.70;99.90;;;;;;5082717;28;20013;-60
2021/06/30 10:07:32;;;;;;;;;;;19.80;99.90;;;;;;5076030;28;20471;-60
2021/06/30 10:10:00;;;;;;;;;;;19.90;99.90;;;;;;5085820;28;20058;-61
2021/06/30 10:12:27;;;;;;;;;;;19.90;99.90;;;;;;5072162;28;19993;-61
2021/06/30 10:14:54;;;;;;;;;;;19.90;99.90;;;;;;5074600;28;20040;-61
2021/06/30 10:17:20;;;;;;;;;;;19.90;99.90;;;;;;5087235;28;19985;-60
2021/06/30 10:19:49;;;;;;;;;;;20.00;99.90;;;;;;5086972;28;20079;-60
2021/06/30 10:22:15;;;;;;;;;;;20.00;99.90;;;;;;5087418;28;19987;-60
2021/06/30 10:24:41;;;;;;;;;;;20.00;99.90;;;;;;5084011;28;20366;-60
2021/06/30 10:27:08;;;;;;;;;;;20.10;99.90;;;;;;5081551;28;20513;-60
2021/06/30 10:29:42;;;;;;;;;;;20.00;99.90;;;;;;5067822;28;20007;-60
2021/06/30 10:32:09;;;;;;;;;;;20.10;99.90;;;;;;5068304;28;20588;-60
2021/06/30 10:34:42;;;;;;;;;;;20.10;99.90;;;;;;5068491;28;20008;-60
2021/06/30 10:37:26;;;;;;;;;;;20.20;99.90;;;;;;5066528;28;20458;-61
2021/06/30 10:39:56;;;;;;;;;;;20.40;99.90;;;;;;5073389;28;19985;-61
2021/06/30 10:42:24;;;;;;;;;;;20.40;99.90;;;;;;5087139;28;20003;-61
2021/06/30 10:44:49;;;;;;;;;;;20.30;99.90;;;;;;5085906;28;19992;-61
2021/06/30 10:47:33;;;;;;;;;;;20.10;99.90;;;;;;5086940;28;20042;-61
2021/06/30 10:50:24;;;;;;;;;;;20.00;99.90;;;;;;5074523;28;20473;-61
2021/06/30 10:52:52;;;;;;;;;;;19.90;99.90;;;;;;5070724;28;19981;-60
2021/06/30 10:55:30;;;;;;;;;;;20.00;99.90;;;;;;5069104;28;20466;-61
2021/06/30 10:58:14;;;;;;;;;;;20.00;99.90;;;;;;5084510;28;20004;-59
2021/06/30 11:00:41;;;;;;;;;;;19.90;99.90;;;;;;5071579;28;19989;-60
2021/06/30 11:03:39;;;;;;;;;;;19.80;99.90;;;;;;5075310;28;20443;-59
2021/06/30 11:06:13;;;;;;;;;;;19.80;99.90;;;;;;5058390;28;19985;-61
2021/06/30 11:08:42;;;;;;;;;;;20.10;99.90;;;;;;5081855;28;19996;-62
2021/06/30 11:11:13;;;;;;;;;;;20.20;99.90;;;;;;5089803;28;19989;-62
2021/06/30 11:13:52;;;;;;;;;;;20.30;99.90;;;;;;5083682;28;20588;-61
2021/06/30 11:16:36;;;;;;;;;;;20.40;99.90;;;;;;5085953;28;20339;-61
2021/06/30 11:19:03;;;;;;;;;;;20.40;99.90;;;;;;5086770;28;20034;-60
2021/06/30 11:21:50;;;;;;;;;;;20.30;99.90;;;;;;5078357;28;19990;-64
2021/06/30 11:27:06;;;;;;;;;;;20.30;99.90;;;;;;5081993;28;20043;-62
2021/06/30 11:29:41;;;;;;;;;;;20.50;99.90;;;;;;5089731;28;19980;-62
2021/06/30 11:32:07;;;;;;;;;;;20.30;99.90;;;;;;5091131;28;20433;-62
2021/06/30 11:34:37;;;;;;;;;;;20.50;99.90;;;;;;5081053;28;20056;-62
2021/06/30 11:37:02;;;;;;;;;;;20.40;99.90;;;;;;5070955;28;19999;-62
2021/06/30 11:39:29;;;;;;;;;;;20.50;99.90;;;;;;5070206;28;19981;-62
2021/06/30 11:41:54;;;;;;;;;;;20.60;99.90;;;;;;5070199;28;19997;-62
2021/06/30 11:44:32;;;;;;;;;;;20.60;99.90;;;;;;5071124;28;20043;-62
2021/06/30 11:47:00;;;;;;;;;;;20.60;99.90;;;;;;5080654;28;19995;-62
2021/06/30 11:49:26;;;;;;;;;;;20.90;99.90;;;;;;5082410;28;19997;-62
2021/06/30 11:51:55;;;;;;;;;;;21.10;99.90;;;;;;5071536;28;19993;-62
2021/06/30 11:54:20;;;;;;;;;;;21.30;99.90;;;;;;5071248;28;20009;-61
2021/06/30 11:56:46;;;;;;;;;;;21.70;99.90;;;;;;5077405;28;20000;-62
2021/06/30 11:59:16;;;;;;;;;;;21.90;99.90;;;;;;5073721;28;20079;-62
2021/06/30 12:01:41;;;;;;;;;;;22.20;99.90;;;;;;5069304;28;20015;-62
2021/06/30 12:04:10;;;;;;;;;;;22.20;99.90;;;;;;5078422;28;19989;-61
2021/06/30 12:06:36;;;;;;;;;;;22.20;99.90;;;;;;5076847;28;19989;-61
2021/06/30 12:09:08;;;;;;;;;;;22.50;99.90;;;;;;5070079;28;20416;-61
2021/06/30 12:11:35;;;;;;;;;;;22.80;99.90;;;;;;5069714;28;19989;-62
2021/06/30 12:14:09;;;;;;;;;;;23.00;99.90;;;;;;5070063;28;20054;-62
2021/06/30 12:16:42;;;;;;;;;;;23.30;99.90;;;;;;5072124;28;19989;-59
2021/06/30 12:19:09;;;;;;;;;;;23.50;99.90;;;;;;5069617;28;19993;-62
2021/06/30 12:21:36;;;;;;;;;;;23.70;99.90;;;;;;5070471;28;19992;-62
2021/06/30 12:24:02;;;;;;;;;;;23.90;99.90;;;;;;5077453;28;19989;-62
2021/06/30 12:26:29;;;;;;;;;;;23.90;99.90;;;;;;5069670;28;19992;-62
2021/06/30 12:28:55;;;;;;;;;;;24.00;99.90;;;;;;5072888;28;20038;-62
2021/06/30 12:31:22;;;;;;;;;;;24.10;99.90;;;;;;5067191;28;20047;-63
2021/06/30 12:33:47;;;;;;;;;;;24.30;99.90;;;;;;5069725;28;20078;-62
2021/06/30 12:36:15;;;;;;;;;;;24.20;99.90;;;;;;5077657;28;19989;-62
2021/06/30 12:38:41;;;;;;;;;;;23.80;99.90;;;;;;5076727;28;19989;-62
2021/06/30 12:41:07;;;;;;;;;;;23.60;99.90;;;;;;5077793;28;19999;-62
2021/06/30 12:43:33;;;;;;;;;;;23.40;99.90;;;;;;5079004;28;19991;-63
2021/06/30 12:45:58;;;;;;;;;;;23.40;99.90;;;;;;5078186;28;19984;-62
2021/06/30 12:48:25;;;;;;;;;;;23.20;99.90;;;;;;5078220;28;20042;-62
2021/06/30 12:50:52;;;;;;;;;;;22.80;99.90;;;;;;5076864;28;19985;-62
2021/06/30 12:53:24;;;;;;;;;;;22.80;99.90;;;;;;5078102;28;20058;-62
2021/06/30 12:55:59;;;;;;;;;;;22.80;99.90;;;;;;5076293;28;20000;-62
2021/06/30 12:58:40;;;;;;;;;;;22.70;99.90;;;;;;5073659;28;19989;-62
2021/06/30 13:01:07;;;;;;;;;;;22.70;99.90;;;;;;5078654;28;19992;-61
2021/06/30 13:03:42;;;;;;;;;;;22.70;99.90;;;;;;5079260;28;19985;-62
2021/06/30 13:06:09;;;;;;;;;;;22.60;99.90;;;;;;5077060;28;19992;-62
2021/06/30 13:08:36;;;;;;;;;;;22.70;99.90;;;;;;5073873;28;19981;-62
2021/06/30 13:11:19;;;;;;;;;;;22.80;99.90;;;;;;5068262;28;20021;-61
2021/06/30 13:14:03;;;;;;;;;;;23.10;99.90;;;;;;5075876;28;20068;-61
2021/06/30 13:16:30;;;;;;;;;;;23.60;99.90;;;;;;5073159;28;19989;-63
2021/06/30 13:18:57;;;;;;;;;;;24.00;99.90;;;;;;5072670;28;20000;-63
2021/06/30 13:21:24;;;;;;;;;;;24.20;99.90;;;;;;5073886;28;19993;-62
2021/06/30 13:23:54;;;;;;;;;;;23.80;99.90;;;;;;5068501;28;19985;-64
2021/06/30 13:26:34;;;;;;;;;;;23.90;99.90;;;;;;5070003;28;19985;-63
2021/06/30 13:34:34;;;;;;;;;;;24.80;99.90;;;;;;5086568;28;20031;-63
2021/06/30 13:37:00;;;;;;;;;;;24.80;99.90;;;;;;5069196;28;19989;-62
2021/06/30 13:39:27;;;;;;;;;;;24.90;99.90;;;;;;5070380;28;20107;-63
2021/06/30 13:41:53;;;;;;;;;;;24.90;99.90;;;;;;5070377;28;20106;-63
2021/06/30 13:44:25;;;;;;;;;;;25.00;99.90;;;;;;5067358;28;20043;-62
2021/06/30 13:46:51;;;;;;;;;;;24.90;99.90;;;;;;5065922;28;19992;-63
2021/06/30 13:49:17;;;;;;;;;;;24.70;99.90;;;;;;5067716;28;20510;-63
2021/06/30 13:51:44;;;;;;;;;;;24.50;99.90;;;;;;5067000;28;20459;-63
2021/06/30 13:54:09;;;;;;;;;;;24.40;99.90;;;;;;5067087;28;20089;-62
2021/06/30 13:56:36;;;;;;;;;;;24.60;99.90;;;;;;5069497;28;20138;-62
2021/06/30 13:59:03;;;;;;;;;;;24.60;99.90;;;;;;5080642;28;19993;-62
2021/06/30 14:01:30;;;;;;;;;;;24.80;99.90;;;;;;5068271;28;20091;-62
2021/06/30 14:04:01;;;;;;;;;;;24.80;99.90;;;;;;5067119;28;19992;-62
2021/06/30 14:06:27;;;;;;;;;;;24.50;99.90;;;;;;5066885;28;20008;-62
2021/06/30 14:08:53;;;;;;;;;;;24.20;99.90;;;;;;5073583;28;19981;-62
2021/06/30 14:11:19;;;;;;;;;;;24.20;99.90;;;;;;5066493;28;19981;-62
2021/06/30 14:13:45;;;;;;;;;;;24.40;99.90;;;;;;5067340;28;20005;-62
2021/06/30 14:16:10;;;;;;;;;;;24.80;99.90;;;;;;5066814;28;19991;-63
2021/06/30 14:18:36;;;;;;;;;;;25.30;99.90;;;;;;5068479;28;20092;-61
2021/06/30 14:21:02;;;;;;;;;;;25.50;99.90;;;;;;5066832;28;20035;-62
2021/06/30 14:23:27;;;;;;;;;;;25.00;99.90;;;;;;5066181;28;20000;-61
2021/06/30 14:25:54;;;;;;;;;;;25.20;99.90;;;;;;5066436;28;19992;-62
2021/06/30 14:28:19;;;;;;;;;;;25.20;99.90;;;;;;5066193;28;19992;-62